Nrp Polar — CTEJ — position and weather

sailwx.info

Track history (hours):
 
Tides and Currents Weather Stations Pressure Air Temp Water Temp Dewpoint Dewpoint Depression Visibility Wind Speed Wind Dir Waves Ship Positions

Nrp Polar

Last reported at 2014-Sep-20 15:34 UTC. Time now 2014-Sep-23 02:24 UTC.
Position N 38°40' W 009°09'.

; draft 3 m.

Type: Sailing vessel. MMSI: 263142000.

Date/timePositionNaut miles runAvg speedWind from/ knotsBaromVisibWave heightAir tempDewpointWater temp
2014-Sep-20 15:34N 38°40' W 009°09'2 1.8
2014-Sep-20 14:33N 38°41' W 009°07'2 2.1
2014-Sep-20 13:33N 38°41' W 009°04'2 2.3
2014-Sep-20 12:33N 38°42' W 009°07'2 2.2
2014-Sep-20 11:34N 38°44' W 009°06'0 0.1
2014-Sep-20 10:33N 38°44' W 009°06'5 4.6
2014-Sep-20 09:33N 38°41' W 009°11'6 5.8
2014-Sep-20 08:33N 38°40' W 009°18'5 4.3
2014-Sep-20 07:29N 38°41' W 009°24'1 0.9
2014-Sep-20 06:28N 38°42' W 009°25'0 0.0
2014-Sep-19 16:22N 38°42' W 009°25'3 3.0
2014-Sep-19 15:30N 38°41' W 009°22'4 4.2
2014-Sep-19 14:33N 38°41' W 009°17'6 5.6
2014-Sep-19 13:33N 38°42' W 009°10'1 1.3
2014-Sep-19 12:33N 38°40' W 009°09'0 0.0
2014-Sep-19 11:33N 38°40' W 009°09'0 0.0
2014-Sep-19 10:33N 38°40' W 009°09'0 0.0
2014-Sep-19 09:33N 38°40' W 009°09'0 0.0
2014-Sep-17 10:23N 38°40' W 009°09'0 0.0
2014-Sep-17 09:34N 38°40' W 009°09'0 0.0
2014-Sep-15 15:33N 38°40' W 009°09'  
Track history (hours):
 
Tides and Currents Weather Stations Pressure Air Temp Water Temp Dewpoint Dewpoint Depression Visibility Wind Speed Wind Dir Waves Ship Positions

Nrp Polar

Last reported at 2014-Sep-20 15:34 UTC. Time now 2014-Sep-23 02:24 UTC.
Position N 38°40' W 009°09'.

; draft 3 m.

Type: Sailing vessel. MMSI: 263142000.

Date/timePositionNaut miles runAvg speedWind from/ knotsBaromVisibWave heightAir tempDewpointWater temp
2014-Sep-20 15:34N 38°40' W 009°09'2 1.8
2014-Sep-20 14:33N 38°41' W 009°07'2 2.1
2014-Sep-20 13:33N 38°41' W 009°04'2 2.3
2014-Sep-20 12:33N 38°42' W 009°07'2 2.2
2014-Sep-20 11:34N 38°44' W 009°06'0 0.1
2014-Sep-20 10:33N 38°44' W 009°06'5 4.6
2014-Sep-20 09:33N 38°41' W 009°11'6 5.8
2014-Sep-20 08:33N 38°40' W 009°18'5 4.3
2014-Sep-20 07:29N 38°41' W 009°24'1 0.9
2014-Sep-20 06:28N 38°42' W 009°25'0 0.0
2014-Sep-19 16:22N 38°42' W 009°25'3 3.0
2014-Sep-19 15:30N 38°41' W 009°22'4 4.2
2014-Sep-19 14:33N 38°41' W 009°17'6 5.6
2014-Sep-19 13:33N 38°42' W 009°10'1 1.3
2014-Sep-19 12:33N 38°40' W 009°09'0 0.0
2014-Sep-19 11:33N 38°40' W 009°09'0 0.0
2014-Sep-19 10:33N 38°40' W 009°09'0 0.0
2014-Sep-19 09:33N 38°40' W 009°09'0 0.0
2014-Sep-17 10:23N 38°40' W 009°09'0 0.0
2014-Sep-17 09:34N 38°40' W 009°09'0 0.0
2014-Sep-15 15:33N 38°40' W 009°09'  

Dump ship's entire track history